Terminal Aerodrome Forecast
Issued by NWS

Home | Current Version | Previous Version | Text Only | Print | Product List | Glossary On
Versions: 1 2 3 4 5 6 7 8 9 10 11 12 13 14 15 16 17 18 19 20 21
000
FTUS42 KFFC 182300
TAFRYY
TAF
KRYY 182327Z 1900/1924 08007KT 4SM SHRA BR BKN020 OVC060
      TEMPO 1900/1902 SCT020 OVC060
     FM190500 06011G19KT 4SM SHRA BR OVC010
     FM190800 04014G24KT 6SM -SHRA OVC009
     FM191200 03014G24KT 6SM -RA BKN017
     FM191900 05011G20KT P6SM BKN025
      AMD NOT SKED 1904/1912=

USA.gov is the U.S. government's official web portal to all federal, state and local government web resources and services.